KOMA

Eppley Airfield Airport

Omaha, Nebraska, USA
METAR KOMA 121752Z 14008KT 10SM SCT250 01/M03 A2981 RMK AO2 SLP102 4/003 933004 I6000 T00111028 10011 21067 58016
Observed Flight Rules
Dec-12 @ 17:52 UTC (an hour ago) Visual Flight Rules
Wind Visibility Clouds
140° at 8 knots 10 miles
  • Scattered at 25,000' AGL
Temperatures Readings Precipitation
Current 1°C / 34°F
Dewpoint -3°C / 27°F
Humidity 75%
Altimeter 29.81" Hg
Pressure 1010.2 hPa
Elevation 312
Snow Depth 3
METAR KOMA 121752Z 14008KT 10SM SCT250 01/M03 A2981 RMK AO2 SLP102 4/003 933004 I6000 T00111028 10011 21067 58016
Observed Flight Rules
Dec-12 @ 17:52 UTC
(an hour ago)
VFR
Wind Visibility
140° at 8 knots 10 miles
Clouds
  • Scattered at 25,000' AGL
Temperature Dewpoint
1°C / 34°F -3°C / 27°F
Humidity Altimeter Pressure
75% 29.81" Hg 1010.2 hPa
Snow Depth
3